createdAt,value
2023-02-03T00:00:06.783Z,9.93
2023-02-03T00:02:33.843Z,9.55
2023-02-03T00:05:00.909Z,7.57
2023-02-03T00:07:28.020Z,9.90
2023-02-03T00:09:55.988Z,16.60
2023-02-03T00:12:23.089Z,10.48
2023-02-03T00:14:50.172Z,10.40
2023-02-03T00:17:17.257Z,8.90
2023-02-03T00:19:44.360Z,9.95
2023-02-03T00:22:11.452Z,8.90
2023-02-03T00:24:38.671Z,12.40
2023-02-03T00:27:05.746Z,6.60
2023-02-03T00:29:32.807Z,7.60
2023-02-03T00:31:59.957Z,9.40
2023-02-03T00:34:30.590Z,9.60
2023-02-03T00:39:24.692Z,8.23
2023-02-03T00:41:51.702Z,11.00
2023-02-03T00:44:18.918Z,6.97
2023-02-03T00:46:45.987Z,8.23
2023-02-03T00:49:13.043Z,5.93
2023-02-03T00:51:40.054Z,10.13
2023-02-03T00:54:07.218Z,9.10
2023-02-03T00:56:34.294Z,8.25
2023-02-03T00:59:01.344Z,8.82
2023-02-03T01:01:28.510Z,10.18
2023-02-03T01:03:56.323Z,8.40
2023-02-03T01:06:23.525Z,9.63
2023-02-03T01:08:50.616Z,9.68
2023-02-03T01:11:19.332Z,9.15
2023-02-03T01:13:46.440Z,8.18
2023-02-03T01:16:14.460Z,7.95
2023-02-03T01:18:41.643Z,8.73
2023-02-03T01:21:09.306Z,9.80
2023-02-03T01:23:36.644Z,9.07
2023-02-03T01:26:07.363Z,7.45
2023-02-03T01:28:34.465Z,8.48
2023-02-03T01:31:17.782Z,10.73
2023-02-03T01:33:48.083Z,11.30
2023-02-03T01:36:15.725Z,6.22
2023-02-03T01:38:42.731Z,9.82
2023-02-03T01:41:11.083Z,8.80
2023-02-03T01:43:38.996Z,13.25
2023-02-03T01:46:26.519Z,5.25
2023-02-03T01:48:54.408Z,6.70
2023-02-03T01:51:22.097Z,11.13
2023-02-03T01:53:49.566Z,10.18
2023-02-03T01:56:16.626Z,9.00
2023-02-03T01:58:43.699Z,11.07
2023-02-03T02:01:10.802Z,6.82
2023-02-03T02:03:42.223Z,7.97
2023-02-03T02:06:12.989Z,8.63
2023-02-03T02:08:40.280Z,6.53
2023-02-03T02:11:07.338Z,5.28
2023-02-03T02:13:37.364Z,5.13
2023-02-03T02:16:23.391Z,6.45
2023-02-03T02:18:53.911Z,8.65
2023-02-03T02:24:02.132Z,5.03
2023-02-03T02:26:40.299Z,6.32
2023-02-03T02:29:13.439Z,5.13
2023-02-03T02:31:53.817Z,6.60
2023-02-03T02:34:40.140Z,6.10
2023-02-03T02:37:10.012Z,7.47
2023-02-03T02:39:41.738Z,5.38
2023-02-03T02:42:15.305Z,5.22
2023-02-03T02:44:44.035Z,5.40
2023-02-03T02:47:12.049Z,5.88
2023-02-03T02:49:42.372Z,6.25
2023-02-03T02:52:09.547Z,8.15
2023-02-03T02:54:38.328Z,7.63
2023-02-03T02:57:05.444Z,7.72
2023-02-03T02:59:32.617Z,6.53
2023-02-03T03:01:59.716Z,7.95
2023-02-03T03:04:27.277Z,5.43
2023-02-03T03:06:56.320Z,9.65
2023-02-03T03:09:24.704Z,6.93
2023-02-03T03:11:52.488Z,6.30
2023-02-03T03:14:19.795Z,6.15
2023-02-03T03:16:48.325Z,5.75
2023-02-03T03:19:16.216Z,6.30
2023-02-03T03:21:44.287Z,5.35
2023-02-03T03:24:11.856Z,6.75
2023-02-03T03:26:42.055Z,6.55
2023-02-03T03:29:13.823Z,5.88
2023-02-03T03:31:41.336Z,6.63
2023-02-03T03:34:11.571Z,4.57
2023-02-03T03:36:43.200Z,5.90
2023-02-03T03:39:15.663Z,4.60
2023-02-03T03:42:01.459Z,8.63
2023-02-03T03:44:30.414Z,8.20
2023-02-03T03:47:00.534Z,9.57
2023-02-03T03:49:27.613Z,7.03
2023-02-03T03:51:58.556Z,4.75
2023-02-03T03:54:25.676Z,7.10
2023-02-03T03:57:03.184Z,6.60
2023-02-03T03:59:31.609Z,4.78
2023-02-03T04:01:58.863Z,4.97
2023-02-03T04:04:25.971Z,7.68
2023-02-03T04:06:55.863Z,5.65
2023-02-03T04:09:22.939Z,5.28
2023-02-03T04:12:02.358Z,7.10
2023-02-03T04:14:30.445Z,7.07
2023-02-03T04:16:57.987Z,5.30
2023-02-03T04:19:25.075Z,4.55
2023-02-03T04:21:52.104Z,6.38
2023-02-03T04:24:19.145Z,5.38
2023-02-03T04:26:46.167Z,7.57
2023-02-03T04:29:13.199Z,4.68
2023-02-03T04:31:40.409Z,7.65
2023-02-03T04:34:07.491Z,5.05
2023-02-03T04:36:34.554Z,5.47
2023-02-03T04:39:01.627Z,6.18
2023-02-03T04:41:28.698Z,6.05
2023-02-03T04:43:55.757Z,5.10
2023-02-03T04:46:22.747Z,4.50
2023-02-03T04:48:49.862Z,5.43
2023-02-03T04:51:16.930Z,4.00
2023-02-03T04:53:43.946Z,7.50
2023-02-03T04:56:11.120Z,12.85
2023-02-03T04:58:38.204Z,5.53
2023-02-03T05:01:09.066Z,3.80
2023-02-03T05:03:36.413Z,5.28
2023-02-03T05:06:03.677Z,5.72
2023-02-03T05:08:30.908Z,4.35
2023-02-03T05:10:59.161Z,4.07
2023-02-03T05:13:27.660Z,5.00
2023-02-03T05:15:54.699Z,3.70
2023-02-03T05:18:21.726Z,5.60
2023-02-03T05:20:48.778Z,2.55
2023-02-03T05:23:15.867Z,4.80
2023-02-03T05:25:44.011Z,5.90
2023-02-03T05:28:11.055Z,4.18
2023-02-03T05:30:38.238Z,2.60
2023-02-03T05:33:05.485Z,3.75
2023-02-03T05:35:32.593Z,1.95
2023-02-03T05:37:59.655Z,4.50
2023-02-03T05:40:45.665Z,5.63
2023-02-03T05:43:12.719Z,4.00
2023-02-03T05:45:39.848Z,4.45
2023-02-03T05:48:09.925Z,6.38
2023-02-03T05:50:38.704Z,5.63
2023-02-03T05:53:06.266Z,3.65
2023-02-03T05:55:33.389Z,4.50
2023-02-03T05:58:01.115Z,4.05
2023-02-03T06:00:28.622Z,4.05
2023-02-03T06:02:56.456Z,4.88
2023-02-03T06:05:23.750Z,6.07
2023-02-03T06:07:50.819Z,7.32
2023-02-03T06:10:17.865Z,5.93
2023-02-03T06:12:44.877Z,4.68
2023-02-03T06:15:11.903Z,6.72
2023-02-03T06:17:39.025Z,4.50
2023-02-03T06:20:06.665Z,3.28
2023-02-03T06:22:33.777Z,5.60
2023-02-03T06:25:00.847Z,5.18
2023-02-03T06:27:27.996Z,5.90
2023-02-03T06:29:55.188Z,4.40
2023-02-03T06:32:22.223Z,10.50
2023-02-03T06:34:49.227Z,2.95
2023-02-03T06:37:16.255Z,5.07
2023-02-03T06:39:43.327Z,5.13
2023-02-03T06:42:10.338Z,4.55
2023-02-03T06:44:37.527Z,3.70
2023-02-03T06:47:04.624Z,7.00
2023-02-03T06:49:31.888Z,4.38
2023-02-03T06:51:59.027Z,6.40
2023-02-03T06:54:26.290Z,4.90
2023-02-03T06:56:53.357Z,5.63
2023-02-03T06:59:20.435Z,5.60
2023-02-03T07:01:47.539Z,5.28
2023-02-03T07:04:14.656Z,5.72
2023-02-03T07:06:41.682Z,6.05
2023-02-03T07:09:08.867Z,3.85
2023-02-03T07:11:35.926Z,4.25
2023-02-03T07:14:03.221Z,3.15
2023-02-03T07:16:31.205Z,5.57
2023-02-03T07:18:58.558Z,3.65
2023-02-03T07:21:25.648Z,3.70
2023-02-03T07:23:52.768Z,6.47
2023-02-03T07:26:19.861Z,5.22
2023-02-03T07:28:46.975Z,4.50
2023-02-03T07:31:14.049Z,4.15
2023-02-03T07:33:41.195Z,6.03
2023-02-03T07:36:08.622Z,5.53
2023-02-03T07:38:35.741Z,5.10
2023-02-03T07:41:02.809Z,7.72
2023-02-03T07:43:29.823Z,2.75
2023-02-03T07:45:56.851Z,7.22
2023-02-03T07:48:23.953Z,3.75
2023-02-03T07:50:52.706Z,5.90
2023-02-03T07:53:20.007Z,6.13
2023-02-03T07:55:47.169Z,5.15
2023-02-03T07:58:14.947Z,2.97
2023-02-03T08:00:41.977Z,4.38
2023-02-03T08:03:09.140Z,5.45
2023-02-03T08:05:36.139Z,8.13
2023-02-03T08:08:03.206Z,3.75
2023-02-03T08:10:30.708Z,4.38
2023-02-03T08:12:57.911Z,3.50
2023-02-03T08:15:24.927Z,3.38
2023-02-03T08:17:52.950Z,4.70
2023-02-03T08:20:20.149Z,3.03
2023-02-03T08:22:47.278Z,4.15
2023-02-03T08:25:14.566Z,4.82
2023-02-03T08:27:41.807Z,4.28
2023-02-03T08:30:10.608Z,5.15
2023-02-03T08:32:38.749Z,4.88
2023-02-03T08:35:06.564Z,6.47
2023-02-03T08:37:34.654Z,3.42
2023-02-03T08:40:01.743Z,3.67
2023-02-03T08:42:28.826Z,4.60
2023-02-03T08:44:55.939Z,2.50
2023-02-03T08:47:23.033Z,3.13
2023-02-03T08:49:50.038Z,4.30
2023-02-03T08:52:19.052Z,8.13
2023-02-03T08:54:46.219Z,6.22
2023-02-03T08:57:13.369Z,4.20
2023-02-03T08:59:40.734Z,6.88
2023-02-03T09:02:09.723Z,3.28
2023-02-03T09:04:36.882Z,8.73
2023-02-03T09:07:04.387Z,7.15
2023-02-03T09:09:32.329Z,3.00
2023-02-03T09:12:02.464Z,7.13
2023-02-03T09:14:30.330Z,2.83
2023-02-03T09:16:57.644Z,6.22
2023-02-03T09:19:24.809Z,3.55
2023-02-03T09:21:52.112Z,6.82
2023-02-03T09:24:19.499Z,2.85
2023-02-03T09:26:46.552Z,3.78
2023-02-03T09:29:13.690Z,3.00
2023-02-03T09:31:40.872Z,4.05
2023-02-03T09:34:08.275Z,4.35
2023-02-03T09:36:35.309Z,3.63
2023-02-03T09:39:02.417Z,3.75
2023-02-03T09:41:35.691Z,6.40
2023-02-03T09:44:05.390Z,2.55
2023-02-03T09:46:39.555Z,6.23
2023-02-03T09:49:18.313Z,5.32
2023-02-03T09:51:49.345Z,6.65
2023-02-03T09:54:26.228Z,4.07
2023-02-03T09:56:55.524Z,3.72
2023-02-03T09:59:23.063Z,4.97
2023-02-03T10:01:59.331Z,3.22
2023-02-03T10:04:27.870Z,3.78
2023-02-03T10:07:15.203Z,5.38
2023-02-03T10:09:55.529Z,5.00
2023-02-03T10:12:44.582Z,3.08
2023-02-03T10:15:30.422Z,7.13
2023-02-03T10:17:58.165Z,4.75
2023-02-03T10:20:27.883Z,8.05
2023-02-03T10:22:55.718Z,5.28
2023-02-03T10:25:25.122Z,6.15
2023-02-03T10:27:56.670Z,4.95
2023-02-03T10:30:24.829Z,5.55
2023-02-03T10:32:54.938Z,3.67
2023-02-03T10:35:22.696Z,3.85
2023-02-03T10:37:50.723Z,5.05
2023-02-03T10:40:17.883Z,9.38
2023-02-03T10:43:03.847Z,3.63
2023-02-03T10:45:31.730Z,4.43
2023-02-03T10:47:58.812Z,3.85
2023-02-03T10:50:32.523Z,5.93
2023-02-03T10:53:18.425Z,3.40
2023-02-03T10:55:46.191Z,6.70
2023-02-03T10:58:17.888Z,2.08
2023-02-03T11:00:45.009Z,4.95
2023-02-03T11:03:12.032Z,4.50
2023-02-03T11:05:39.105Z,3.90
2023-02-03T11:08:06.350Z,3.10
2023-02-03T11:10:40.800Z,3.90
2023-02-03T11:13:17.094Z,2.75
2023-02-03T11:15:45.050Z,4.70
2023-02-03T11:18:30.585Z,2.00
2023-02-03T11:20:58.112Z,1.85
2023-02-03T11:23:25.211Z,5.10
2023-02-03T11:25:52.274Z,2.10
2023-02-03T11:28:19.504Z,4.40
2023-02-03T11:30:46.675Z,3.92
2023-02-03T11:33:18.292Z,2.75
2023-02-03T11:35:58.963Z,5.78
2023-02-03T11:38:30.005Z,2.40
2023-02-03T11:41:03.346Z,4.20
2023-02-03T11:43:30.492Z,2.72
2023-02-03T11:46:01.179Z,4.85
2023-02-03T11:48:31.028Z,5.30
2023-02-03T11:51:14.331Z,7.03
2023-02-03T11:53:55.126Z,3.97
2023-02-03T11:56:29.239Z,6.72
2023-02-03T11:59:12.479Z,3.05
2023-02-03T12:01:48.659Z,5.40
2023-02-03T12:04:18.526Z,3.05
2023-02-03T12:07:00.821Z,6.68
2023-02-03T12:09:34.226Z,6.10
2023-02-03T12:12:04.063Z,3.20
2023-02-03T12:14:35.031Z,2.72
2023-02-03T12:17:08.176Z,5.30
2023-02-03T12:19:41.468Z,3.20
2023-02-03T12:22:09.887Z,2.45
2023-02-03T12:24:53.108Z,5.70
2023-02-03T12:27:27.763Z,3.17
2023-02-03T12:30:02.876Z,5.18
2023-02-03T12:32:33.093Z,2.58
2023-02-03T12:35:20.419Z,3.20
2023-02-03T12:37:49.884Z,4.93
2023-02-03T12:40:26.222Z,5.18
2023-02-03T12:42:57.431Z,4.72
2023-02-03T12:45:25.557Z,3.17
2023-02-03T12:48:02.466Z,3.40
2023-02-03T12:50:36.873Z,3.55
2023-02-03T12:53:07.004Z,3.15
2023-02-03T12:55:35.729Z,2.80
2023-02-03T12:58:06.903Z,2.60
2023-02-03T13:00:52.625Z,3.72
2023-02-03T13:03:22.677Z,3.20
2023-02-03T13:06:05.796Z,5.78
2023-02-03T13:08:37.072Z,4.10
2023-02-03T13:11:24.254Z,4.03
2023-02-03T13:13:55.435Z,5.35
2023-02-03T13:16:24.573Z,3.33
2023-02-03T13:18:54.102Z,3.40
2023-02-03T13:21:21.233Z,3.65
2023-02-03T13:23:50.210Z,5.78
2023-02-03T13:26:30.661Z,4.25
2023-02-03T13:29:00.789Z,3.45
2023-02-03T13:31:40.341Z,4.25
2023-02-03T13:34:24.811Z,4.80
2023-02-03T13:37:07.846Z,4.25
2023-02-03T13:39:47.206Z,7.40
2023-02-03T13:42:14.295Z,10.07
2023-02-03T13:44:41.340Z,4.55
2023-02-03T13:47:14.208Z,7.10
2023-02-03T13:49:46.366Z,5.10
2023-02-03T13:52:26.655Z,5.63
2023-02-03T13:54:53.669Z,4.57
2023-02-03T13:57:21.924Z,7.15
2023-02-03T13:59:49.762Z,6.07
2023-02-03T14:02:19.969Z,4.32
2023-02-03T14:04:47.132Z,7.18
2023-02-03T14:07:23.101Z,7.00
2023-02-03T14:10:06.628Z,3.88
2023-02-03T14:12:34.553Z,4.78
2023-02-03T14:15:05.437Z,4.93
2023-02-03T14:17:35.653Z,4.65
2023-02-03T14:20:06.201Z,16.77
2023-02-03T14:25:04.915Z,5.68
2023-02-03T14:27:32.019Z,5.47
2023-02-03T14:30:05.373Z,3.53
2023-02-03T14:32:48.513Z,4.55
2023-02-03T14:35:19.268Z,6.68
2023-02-03T14:37:52.555Z,4.68
2023-02-03T14:40:26.100Z,8.23
2023-02-03T14:43:09.530Z,6.18
2023-02-03T14:45:57.769Z,7.03
2023-02-03T14:48:53.902Z,9.88
2023-02-03T14:51:20.957Z,6.57
2023-02-03T14:53:47.963Z,5.38
2023-02-03T14:56:19.917Z,7.95
2023-02-03T14:58:48.572Z,10.85
2023-02-03T15:01:24.949Z,8.45
2023-02-03T15:04:21.055Z,7.60
2023-02-03T15:06:51.946Z,6.15
2023-02-03T15:09:19.063Z,7.15
2023-02-03T15:11:46.763Z,8.27
2023-02-03T15:14:19.032Z,9.85
2023-02-03T15:16:46.476Z,8.60
2023-02-03T15:19:17.199Z,8.77
2023-02-03T15:21:44.365Z,9.23
2023-02-03T15:24:15.562Z,8.85
2023-02-03T15:26:46.398Z,8.60
2023-02-03T15:29:20.922Z,10.70
2023-02-03T15:31:49.702Z,9.05
2023-02-03T15:34:24.554Z,10.57
2023-02-03T15:36:52.569Z,8.90
2023-02-03T15:39:33.732Z,10.68
2023-02-03T15:42:00.843Z,9.57
2023-02-03T15:44:32.191Z,11.48
2023-02-03T15:46:59.330Z,7.60
2023-02-03T15:49:31.019Z,13.63
2023-02-03T15:51:58.103Z,8.98
2023-02-03T15:54:40.348Z,10.27
2023-02-03T15:57:12.074Z,12.07
2023-02-03T15:59:40.399Z,12.55
2023-02-03T16:02:20.587Z,13.98
2023-02-03T16:04:47.808Z,13.13
2023-02-03T16:07:22.148Z,13.07
2023-02-03T16:09:52.502Z,12.85
2023-02-03T16:12:23.119Z,15.68
2023-02-03T16:14:50.323Z,10.70
2023-02-03T16:17:39.136Z,12.38
2023-02-03T16:20:12.064Z,13.20
2023-02-03T16:22:39.174Z,11.55
2023-02-03T16:25:22.595Z,11.45
2023-02-03T16:28:37.267Z,15.38
2023-02-03T16:31:29.905Z,24.88
2023-02-03T16:34:15.526Z,16.02
2023-02-03T16:37:01.756Z,16.40
2023-02-03T16:39:47.445Z,12.98
2023-02-03T16:42:34.803Z,13.82
2023-02-03T16:45:20.813Z,14.60
2023-02-03T16:48:06.768Z,14.05
2023-02-03T16:50:52.757Z,10.98
2023-02-03T16:53:30.197Z,9.10
2023-02-03T16:55:58.608Z,10.40
2023-02-03T16:58:25.667Z,8.50
2023-02-03T17:00:53.352Z,9.18
2023-02-03T17:03:21.201Z,10.43
2023-02-03T17:05:48.335Z,14.73
2023-02-03T17:08:15.983Z,10.88
2023-02-03T17:10:43.311Z,10.68
2023-02-03T17:13:10.588Z,11.60
2023-02-03T17:15:41.395Z,16.92
2023-02-03T17:18:08.436Z,14.35
2023-02-03T17:20:35.778Z,12.88
2023-02-03T17:23:02.919Z,17.02
2023-02-03T17:25:30.246Z,12.70
2023-02-03T17:27:57.547Z,11.77
2023-02-03T17:30:24.728Z,21.15
2023-02-03T17:32:51.773Z,19.67
2023-02-03T17:35:18.870Z,28.15
2023-02-03T17:37:45.977Z,16.50
2023-02-03T17:54:06.100Z,19.00
2023-02-03T17:56:33.634Z,22.52
2023-02-03T17:59:01.380Z,24.60
2023-02-03T18:01:28.722Z,18.98
2023-02-03T18:04:01.409Z,26.17
2023-02-03T18:06:28.830Z,21.55
2023-02-03T18:09:01.165Z,19.98
2023-02-03T18:11:28.438Z,29.48
2023-02-03T18:13:55.496Z,23.88
2023-02-03T18:16:27.793Z,27.33
2023-02-03T18:18:54.890Z,22.10
2023-02-03T18:21:22.325Z,24.83
2023-02-03T18:23:51.030Z,23.35
2023-02-03T18:26:18.614Z,33.75
2023-02-03T18:28:45.689Z,24.30
2023-02-03T18:31:13.870Z,29.10
2023-02-03T18:33:41.056Z,26.75
2023-02-03T18:36:08.310Z,26.38
2023-02-03T18:38:36.009Z,38.05
2023-02-03T18:41:05.922Z,25.88
2023-02-03T18:43:32.988Z,20.05
2023-02-03T18:46:00.216Z,24.33
2023-02-03T18:48:27.334Z,29.98
2023-02-03T18:50:54.373Z,30.00
2023-02-03T18:53:21.438Z,23.17
2023-02-03T18:55:48.525Z,26.30
2023-02-03T18:58:15.576Z,26.90
2023-02-03T19:00:42.646Z,31.10
2023-02-03T19:03:09.712Z,23.73
2023-02-03T19:05:36.957Z,30.70
2023-02-03T19:08:03.986Z,24.27
2023-02-03T19:10:32.324Z,23.73
2023-02-03T19:12:59.772Z,28.20
2023-02-03T19:15:26.863Z,25.60
2023-02-03T19:17:53.910Z,24.85
2023-02-03T19:20:20.917Z,15.40
2023-02-03T19:22:47.958Z,20.48
2023-02-03T19:25:15.083Z,22.52
2023-02-03T19:27:42.243Z,22.10
2023-02-03T19:30:09.857Z,26.73
2023-02-03T19:32:36.890Z,34.00
2023-02-03T19:35:03.902Z,24.15
2023-02-03T19:37:30.982Z,22.33
2023-02-03T19:39:58.085Z,23.35
2023-02-03T19:42:25.107Z,20.15
2023-02-03T19:44:52.366Z,26.08
2023-02-03T19:47:19.499Z,29.15
2023-02-03T19:49:46.573Z,20.33
2023-02-03T19:52:13.600Z,27.08
2023-02-03T19:54:40.752Z,25.08
2023-02-03T19:57:07.945Z,23.98
2023-02-03T19:59:35.032Z,21.15
2023-02-03T20:02:12.613Z,22.38
2023-02-03T20:04:41.209Z,28.88
2023-02-03T20:07:08.504Z,24.55
2023-02-03T20:09:37.092Z,20.85
2023-02-03T20:12:04.343Z,23.08
2023-02-03T20:14:32.652Z,24.80
2023-02-03T20:16:59.741Z,24.48
2023-02-03T20:19:26.817Z,21.30
2023-02-03T20:21:53.835Z,19.77
2023-02-03T20:24:20.851Z,23.85
2023-02-03T20:26:47.920Z,22.13
2023-02-03T20:29:14.912Z,21.52
2023-02-03T20:31:42.035Z,22.35
2023-02-03T20:34:09.602Z,23.10
2023-02-03T20:36:36.661Z,19.63
2023-02-03T20:39:03.698Z,19.40
2023-02-03T20:41:30.852Z,19.20
2023-02-03T20:43:57.998Z,21.67
2023-02-03T20:46:25.116Z,28.42
2023-02-03T20:48:52.258Z,24.42
2023-02-03T20:51:21.026Z,19.52
2023-02-03T20:53:50.030Z,37.95
2023-02-03T20:56:18.250Z,22.23
2023-02-03T20:58:45.492Z,19.20
2023-02-03T21:01:13.149Z,23.10
2023-02-03T21:03:59.008Z,27.63
2023-02-03T21:06:26.168Z,20.77
2023-02-03T21:08:53.239Z,21.52
2023-02-03T21:11:21.069Z,23.75
2023-02-03T21:13:49.721Z,22.67
2023-02-03T21:16:17.879Z,28.40
2023-02-03T21:18:47.735Z,24.00
2023-02-03T21:21:15.967Z,31.23
2023-02-03T21:23:46.829Z,23.52
2023-02-03T21:26:24.272Z,23.10
2023-02-03T21:28:58.508Z,20.75
2023-02-03T21:31:32.556Z,22.55
2023-02-03T21:34:00.527Z,20.10
2023-02-03T21:36:28.406Z,29.67
2023-02-03T21:38:56.221Z,22.50
2023-02-03T21:41:23.978Z,24.77
2023-02-03T21:43:52.065Z,23.95
2023-02-03T21:46:19.788Z,26.05
2023-02-03T21:48:50.700Z,22.63
2023-02-03T21:51:19.034Z,20.38
2023-02-03T21:53:48.939Z,25.38
2023-02-03T21:56:20.112Z,27.95
2023-02-03T21:58:47.523Z,20.80
2023-02-03T22:01:17.870Z,21.67
2023-02-03T22:03:47.528Z,23.13
2023-02-03T22:06:41.008Z,21.00
2023-02-03T22:09:10.012Z,21.27
2023-02-03T22:11:37.092Z,19.00
2023-02-03T22:14:04.096Z,23.65
2023-02-03T22:16:31.149Z,21.15
2023-02-03T22:18:58.220Z,26.60
2023-02-03T22:21:25.319Z,32.13
2023-02-03T22:23:52.355Z,26.00
2023-02-03T22:26:19.489Z,25.63
2023-02-03T22:28:46.684Z,18.50
2023-02-03T22:31:13.815Z,22.80
2023-02-03T22:33:40.984Z,20.02
2023-02-03T22:36:08.490Z,18.02
2023-02-03T22:38:35.624Z,19.98
2023-02-03T22:41:02.661Z,18.08
2023-02-03T22:43:31.198Z,23.10
2023-02-03T22:45:58.539Z,21.17
2023-02-03T22:48:25.744Z,18.48
2023-02-03T22:50:52.774Z,21.30
2023-02-03T22:53:26.023Z,18.95
2023-02-03T22:55:53.197Z,22.20
2023-02-03T22:58:20.284Z,20.38
2023-02-03T23:00:47.312Z,25.08
2023-02-03T23:03:14.438Z,19.42
2023-02-03T23:05:41.526Z,19.33
2023-02-03T23:08:09.560Z,17.33
2023-02-03T23:10:36.640Z,21.48
2023-02-03T23:13:03.731Z,21.75
2023-02-03T23:15:31.070Z,17.00
2023-02-03T23:17:58.439Z,21.92
2023-02-03T23:20:25.545Z,23.48
2023-02-03T23:22:52.616Z,21.63
2023-02-03T23:25:19.723Z,15.30
2023-02-03T23:27:46.851Z,20.58
2023-02-03T23:30:14.331Z,17.33
2023-02-03T23:32:41.371Z,13.90
2023-02-03T23:35:27.479Z,13.88
2023-02-03T23:37:54.578Z,18.58
2023-02-03T23:40:21.783Z,17.88
2023-02-03T23:42:48.906Z,17.05
2023-02-03T23:45:16.303Z,14.20
2023-02-03T23:47:43.898Z,20.90
2023-02-03T23:50:11.450Z,16.65
2023-02-03T23:52:38.505Z,17.10
2023-02-03T23:55:06.551Z,21.63
2023-02-03T23:57:33.620Z,16.00
